Time;durP1;ratioP1;P1;durP2;ratioP2;P2;SDS_P1;SDS_P2;PMS_P1;PMS_P2;Temp;Humidity;BMP_temperature;BMP_pressure;BME280_temperature;BME280_humidity;BME280_pressure;Samples;Min_cycle;Max_cycle;Signal;HPM_P1;HPM_P2
2021/05/15 00:00:53;;;;;;;1.25;0.65;;;;;;;;;;5091655;28;20038;-47
2021/05/15 00:03:19;;;;;;;10.52;0.88;;;;;;;;;;5091715;28;20502;-47
2021/05/15 00:05:45;;;;;;;4.78;0.63;;;;;;;;;;5091701;28;20028;-47
2021/05/15 00:08:12;;;;;;;3.55;0.70;;;;;;;;;;5079442;28;20024;-47
2021/05/15 00:10:38;;;;;;;0.77;0.73;;;;;;;;;;5071100;28;20522;-46
2021/05/15 00:13:04;;;;;;;0.70;0.70;;;;;;;;;;5071864;28;20028;-47
2021/05/15 00:15:30;;;;;;;1.10;0.73;;;;;;;;;;5071349;28;20366;-47
2021/05/15 00:17:56;;;;;;;2.78;0.80;;;;;;;;;;5071089;28;20457;-47
2021/05/15 00:20:22;;;;;;;1.02;0.73;;;;;;;;;;5071289;28;20029;-47
2021/05/15 00:22:48;;;;;;;0.65;0.60;;;;;;;;;;5071229;28;20503;-47
2021/05/15 00:25:15;;;;;;;0.68;0.60;;;;;;;;;;5070981;28;20024;-47
2021/05/15 00:27:41;;;;;;;0.65;0.65;;;;;;;;;;5080117;28;20583;-46
2021/05/15 00:30:08;;;;;;;0.82;0.70;;;;;;;;;;5091192;28;20060;-47
2021/05/15 00:32:34;;;;;;;1.17;0.70;;;;;;;;;;5091332;28;20458;-47
2021/05/15 00:35:00;;;;;;;0.57;0.57;;;;;;;;;;5091384;28;20322;-47
2021/05/15 00:37:26;;;;;;;0.60;0.60;;;;;;;;;;5091264;28;20468;-47
2021/05/15 00:39:52;;;;;;;1.85;0.65;;;;;;;;;;5091292;28;20028;-47
2021/05/15 00:42:18;;;;;;;0.65;0.65;;;;;;;;;;5091632;28;20020;-47
2021/05/15 00:44:45;;;;;;;0.60;0.60;;;;;;;;;;5090925;28;20115;-47
2021/05/15 00:47:15;;;;;;;1.02;0.73;;;;;;;;;;5091301;28;20107;-47
2021/05/15 00:49:41;;;;;;;0.50;0.50;;;;;;;;;;5091022;28;20032;-46
2021/05/15 00:52:08;;;;;;;0.95;0.57;;;;;;;;;;5091133;28;20031;-47
2021/05/15 00:54:38;;;;;;;2.00;0.88;;;;;;;;;;5091300;28;20081;-47
2021/05/15 00:57:04;;;;;;;0.60;0.55;;;;;;;;;;5090806;28;20365;-47
2021/05/15 00:59:31;;;;;;;0.95;0.63;;;;;;;;;;5091302;28;20039;-47
2021/05/15 01:01:57;;;;;;;4.28;0.70;;;;;;;;;;5090874;28;20028;-46
2021/05/15 01:04:23;;;;;;;1.00;0.75;;;;;;;;;;5091299;28;20034;-47
2021/05/15 01:06:50;;;;;;;0.60;0.60;;;;;;;;;;5094222;28;20150;-46
2021/05/15 01:09:16;;;;;;;1.20;0.50;;;;;;;;;;5095747;28;20394;-47
2021/05/15 01:11:42;;;;;;;0.60;0.60;;;;;;;;;;5094862;28;20055;-47
2021/05/15 01:14:08;;;;;;;0.63;0.63;;;;;;;;;;5094891;28;20449;-47
2021/05/15 01:16:35;;;;;;;1.02;0.60;;;;;;;;;;5094983;28;20032;-47
2021/05/15 01:19:01;;;;;;;1.23;0.70;;;;;;;;;;5095053;28;20327;-47
2021/05/15 01:21:27;;;;;;;2.38;0.57;;;;;;;;;;5094974;28;20107;-47
2021/05/15 01:23:53;;;;;;;1.05;0.70;;;;;;;;;;5094621;28;20506;-47
2021/05/15 01:26:21;;;;;;;0.60;0.60;;;;;;;;;;5095219;28;20134;-46
2021/05/15 01:28:53;;;;;;;4.30;1.05;;;;;;;;;;5094606;28;20446;-47
2021/05/15 01:31:19;;;;;;;1.98;0.60;;;;;;;;;;5094067;28;20470;-47
2021/05/15 01:33:45;;;;;;;0.60;0.60;;;;;;;;;;5094961;28;20437;-46
2021/05/15 01:36:11;;;;;;;0.60;0.60;;;;;;;;;;5094617;28;20357;-46
2021/05/15 01:38:37;;;;;;;1.10;0.70;;;;;;;;;;5094714;28;20012;-46
2021/05/15 01:41:04;;;;;;;2.13;0.82;;;;;;;;;;5094017;28;20032;-47
2021/05/15 01:43:30;;;;;;;2.20;0.60;;;;;;;;;;5075590;28;20012;-47
2021/05/15 01:45:56;;;;;;;0.90;0.68;;;;;;;;;;5074626;28;20059;-46
2021/05/15 01:48:22;;;;;;;0.70;0.70;;;;;;;;;;5074390;28;20607;-47
2021/05/15 01:51:03;;;;;;;1.23;0.73;;;;;;;;;;5076099;28;20029;-47
2021/05/15 01:53:29;;;;;;;;;;;;;;;;;;5095170;28;20034;-47
2021/05/15 01:55:55;;;;;;;0.77;0.77;;;;;;;;;;5094424;28;20361;-47
2021/05/15 01:58:22;;;;;;;0.50;0.50;;;;;;;;;;5094335;28;20103;-47
2021/05/15 02:00:48;;;;;;;1.58;0.77;;;;;;;;;;5093954;28;20445;-46
2021/05/15 02:03:14;;;;;;;1.20;0.68;;;;;;;;;;5094709;28;20111;-46
2021/05/15 02:05:40;;;;;;;1.63;0.90;;;;;;;;;;5094614;28;20289;-47
2021/05/15 02:08:09;;;;;;;0.60;0.60;;;;;;;;;;5094135;28;20120;-47
2021/05/15 02:10:35;;;;;;;1.10;0.60;;;;;;;;;;5094061;28;20072;-47
2021/05/15 02:13:01;;;;;;;3.70;0.82;;;;;;;;;;5093892;28;20470;-47
2021/05/15 02:15:27;;;;;;;1.85;1.00;;;;;;;;;;5094050;28;20036;-47
2021/05/15 02:17:53;;;;;;;2.67;0.70;;;;;;;;;;5092613;28;20024;-47
2021/05/15 02:20:19;;;;;;;0.80;0.65;;;;;;;;;;5093596;28;20073;-47
2021/05/15 02:22:45;;;;;;;0.80;0.60;;;;;;;;;;5094195;28;20081;-47
2021/05/15 02:25:11;;;;;;;0.60;0.60;;;;;;;;;;5093854;28;20334;-47
2021/05/15 02:27:37;;;;;;;1.50;0.98;;;;;;;;;;5086432;28;20030;-47
2021/05/15 02:30:03;;;;;;;0.73;0.68;;;;;;;;;;5093376;28;20036;-47
2021/05/15 02:32:29;;;;;;;0.68;0.68;;;;;;;;;;5093561;28;20030;-47
2021/05/15 02:34:55;;;;;;;1.40;0.90;;;;;;;;;;5093620;28;20021;-46
2021/05/15 02:37:21;;;;;;;0.77;0.77;;;;;;;;;;5075652;28;20037;-47
2021/05/15 02:39:47;;;;;;;4.50;0.93;;;;;;;;;;5082268;28;20024;-47
2021/05/15 02:42:13;;;;;;;0.93;0.80;;;;;;;;;;5093495;28;20107;-47
2021/05/15 02:44:39;;;;;;;1.40;1.05;;;;;;;;;;5093446;28;20077;-47
2021/05/15 02:47:05;;;;;;;1.05;0.90;;;;;;;;;;5093700;28;20020;-46
2021/05/15 02:49:31;;;;;;;1.65;1.02;;;;;;;;;;5093557;28;20449;-47
2021/05/15 02:51:57;;;;;;;2.00;0.88;;;;;;;;;;5092896;28;20354;-47
2021/05/15 02:54:23;;;;;;;1.27;0.90;;;;;;;;;;5093175;28;20058;-47
2021/05/15 02:56:49;;;;;;;0.70;0.70;;;;;;;;;;5092959;28;20039;-46
2021/05/15 02:59:15;;;;;;;0.77;0.73;;;;;;;;;;5093368;28;20032;-47
2021/05/15 03:01:41;;;;;;;1.95;0.90;;;;;;;;;;5092659;28;20024;-47
2021/05/15 03:04:07;;;;;;;0.77;0.77;;;;;;;;;;5093008;28;20016;-46
2021/05/15 03:06:33;;;;;;;2.13;1.08;;;;;;;;;;5093130;28;20111;-48
2021/05/15 03:08:59;;;;;;;1.98;1.02;;;;;;;;;;5073872;28;20025;-47
2021/05/15 03:11:25;;;;;;;0.98;0.80;;;;;;;;;;5072376;28;20363;-47
2021/05/15 03:13:51;;;;;;;1.88;1.30;;;;;;;;;;5072585;28;20039;-47
2021/05/15 03:16:17;;;;;;;1.05;0.80;;;;;;;;;;5072877;28;20036;-47
2021/05/15 03:18:43;;;;;;;0.60;0.60;;;;;;;;;;5072708;28;20024;-47
2021/05/15 03:21:09;;;;;;;1.60;0.75;;;;;;;;;;5072084;28;20029;-47
2021/05/15 03:23:35;;;;;;;0.75;0.70;;;;;;;;;;5072426;28;20450;-47
2021/05/15 03:26:01;;;;;;;1.00;0.95;;;;;;;;;;5072048;28;20454;-47
2021/05/15 03:28:27;;;;;;;4.20;0.82;;;;;;;;;;5087080;28;20073;-47
2021/05/15 03:30:53;;;;;;;1.60;1.00;;;;;;;;;;5092483;28;20047;-47
2021/05/15 03:33:19;;;;;;;0.80;0.80;;;;;;;;;;5092417;28;20028;-47
2021/05/15 03:35:45;;;;;;;5.28;1.00;;;;;;;;;;5092385;28;20411;-46
2021/05/15 03:38:12;;;;;;;0.90;0.80;;;;;;;;;;5092372;28;20072;-47
2021/05/15 03:40:38;;;;;;;0.70;0.60;;;;;;;;;;5091885;28;20035;-47
2021/05/15 03:43:04;;;;;;;0.90;0.75;;;;;;;;;;5092636;28;20024;-47
2021/05/15 03:45:30;;;;;;;1.33;0.90;;;;;;;;;;5092350;28;20028;-47
2021/05/15 03:47:56;;;;;;;1.35;0.90;;;;;;;;;;5092256;28;20024;-47
2021/05/15 03:50:22;;;;;;;1.40;0.80;;;;;;;;;;5091798;28;20024;-47
2021/05/15 03:52:49;;;;;;;0.50;0.50;;;;;;;;;;5091396;28;20028;-47
2021/05/15 03:55:15;;;;;;;3.00;0.70;;;;;;;;;;5091738;28;20032;-46
2021/05/15 03:57:41;;;;;;;1.40;0.88;;;;;;;;;;5091552;28;20028;-47
2021/05/15 04:00:09;;;;;;;3.15;0.50;;;;;;;;;;5091490;28;20459;-46
2021/05/15 04:02:35;;;;;;;1.25;0.82;;;;;;;;;;5091417;28;20028;-47
2021/05/15 04:05:01;;;;;;;1.95;1.10;;;;;;;;;;5091925;28;20243;-47
2021/05/15 04:07:27;;;;;;;0.90;0.73;;;;;;;;;;5091742;28;20072;-47
2021/05/15 04:09:53;;;;;;;2.15;0.57;;;;;;;;;;5092359;28;20023;-47
2021/05/15 04:12:19;;;;;;;1.45;0.70;;;;;;;;;;5091734;28;20370;-47
2021/05/15 04:14:49;;;;;;;0.82;0.80;;;;;;;;;;5091956;28;20016;-47
2021/05/15 04:17:22;;;;;;;1.00;0.75;;;;;;;;;;5091917;28;20043;-47
2021/05/15 04:19:48;;;;;;;1.00;0.70;;;;;;;;;;5091807;28;20103;-47
2021/05/15 04:22:14;;;;;;;1.67;0.90;;;;;;;;;;5091214;28;20054;-47
2021/05/15 04:24:41;;;;;;;0.70;0.70;;;;;;;;;;5091399;28;20017;-47
2021/05/15 04:27:08;;;;;;;2.25;0.70;;;;;;;;;;5091458;28;20020;-46
2021/05/15 04:29:34;;;;;;;1.80;0.60;;;;;;;;;;5091494;28;20043;-47
2021/05/15 04:32:00;;;;;;;1.20;0.70;;;;;;;;;;5091051;28;20405;-47
2021/05/15 04:34:28;;;;;;;0.90;0.80;;;;;;;;;;5091325;28;20048;-47
2021/05/15 04:36:54;;;;;;;0.65;0.60;;;;;;;;;;5078132;28;20040;-46
2021/05/15 04:39:20;;;;;;;0.70;0.70;;;;;;;;;;5076589;28;20020;-47
2021/05/15 04:41:46;;;;;;;0.82;0.82;;;;;;;;;;5090471;28;20061;-46
2021/05/15 04:44:12;;;;;;;1.45;0.75;;;;;;;;;;5091346;28;20020;-47
2021/05/15 04:46:38;;;;;;;1.55;0.80;;;;;;;;;;5090817;28;20110;-47
2021/05/15 04:49:04;;;;;;;0.70;0.70;;;;;;;;;;5091215;28;20032;-47
2021/05/15 04:51:30;;;;;;;0.75;0.70;;;;;;;;;;5091132;28;20017;-47
2021/05/15 04:53:56;;;;;;;1.38;0.80;;;;;;;;;;5091310;28;20046;-47
2021/05/15 04:56:22;;;;;;;1.20;1.08;;;;;;;;;;5091331;28;20089;-47
2021/05/15 04:58:48;;;;;;;2.20;1.00;;;;;;;;;;5091143;28;20020;-47
2021/05/15 05:01:14;;;;;;;4.07;0.90;;;;;;;;;;5090516;28;20039;-46
2021/05/15 05:03:40;;;;;;;0.50;0.50;;;;;;;;;;5091086;28;20358;-47
2021/05/15 05:06:06;;;;;;;2.03;0.95;;;;;;;;;;5091545;28;20017;-47
2021/05/15 05:08:32;;;;;;;0.73;0.70;;;;;;;;;;5075811;28;20025;-47
2021/05/15 05:10:58;;;;;;;0.60;0.57;;;;;;;;;;5070879;28;20024;-47
2021/05/15 05:13:24;;;;;;;0.93;0.80;;;;;;;;;;5070935;28;20643;-47
2021/05/15 05:15:50;;;;;;;3.83;0.75;;;;;;;;;;5070363;28;20075;-46
2021/05/15 05:18:16;;;;;;;1.05;0.85;;;;;;;;;;5070787;28;20056;-47
2021/05/15 05:20:42;;;;;;;1.10;0.68;;;;;;;;;;5071102;28;20143;-47
2021/05/15 05:23:08;;;;;;;1.25;0.82;;;;;;;;;;5070766;28;20025;-47
2021/05/15 05:25:34;;;;;;;1.50;0.57;;;;;;;;;;5070853;28;20058;-47
2021/05/15 05:28:01;;;;;;;2.58;0.70;;;;;;;;;;5082063;28;20073;-46
2021/05/15 05:30:27;;;;;;;0.60;0.60;;;;;;;;;;5090384;28;20080;-47
2021/05/15 05:32:53;;;;;;;0.40;0.40;;;;;;;;;;5091394;28;20028;-47
2021/05/15 05:35:19;;;;;;;1.73;0.82;;;;;;;;;;5090880;28;20459;-47
2021/05/15 05:37:47;;;;;;;1.00;0.70;;;;;;;;;;5091037;28;20028;-47
2021/05/15 05:40:13;;;;;;;0.95;0.70;;;;;;;;;;5090653;28;20031;-47
2021/05/15 05:42:39;;;;;;;0.20;0.20;;;;;;;;;;5090117;28;20130;-47
2021/05/15 05:45:06;;;;;;;0.70;0.70;;;;;;;;;;5090244;28;20347;-47
2021/05/15 05:47:32;;;;;;;1.13;0.60;;;;;;;;;;5090541;28;20194;-47
2021/05/15 05:49:59;;;;;;;1.05;0.80;;;;;;;;;;5090309;28;20047;-47
2021/05/15 05:52:25;;;;;;;0.43;0.43;;;;;;;;;;5091647;28;20016;-47
2021/05/15 05:54:51;;;;;;;0.90;0.65;;;;;;;;;;5093611;28;20081;-46
2021/05/15 05:57:17;;;;;;;0.30;0.30;;;;;;;;;;5094099;28;20032;-47
2021/05/15 05:59:43;;;;;;;0.50;0.50;;;;;;;;;;5094213;28;20039;-47
2021/05/15 06:02:10;;;;;;;2.53;1.10;;;;;;;;;;5094494;28;20047;-47
2021/05/15 06:04:36;;;;;;;1.08;0.75;;;;;;;;;;5086303;28;20032;-47
2021/05/15 06:07:02;;;;;;;4.82;0.80;;;;;;;;;;5093521;28;20036;-47
2021/05/15 06:09:28;;;;;;;1.05;0.73;;;;;;;;;;5093785;28;20402;-47
2021/05/15 06:11:54;;;;;;;0.73;0.73;;;;;;;;;;5093399;28;20120;-47
2021/05/15 06:14:20;;;;;;;2.15;0.70;;;;;;;;;;5093116;28;20119;-47
2021/05/15 06:16:46;;;;;;;1.10;0.80;;;;;;;;;;5093525;28;20032;-47
2021/05/15 06:19:12;;;;;;;0.77;0.60;;;;;;;;;;5094257;28;20035;-47
2021/05/15 06:21:38;;;;;;;2.97;1.00;;;;;;;;;;5093330;28;20109;-46
2021/05/15 06:24:04;;;;;;;1.38;1.05;;;;;;;;;;5093136;28;20069;-46
2021/05/15 06:26:30;;;;;;;0.65;0.65;;;;;;;;;;5092486;28;20032;-47
2021/05/15 06:28:56;;;;;;;0.73;0.65;;;;;;;;;;5093596;28;20031;-47
2021/05/15 06:31:22;;;;;;;0.77;0.77;;;;;;;;;;5093134;28;20464;-46
2021/05/15 06:33:48;;;;;;;0.93;0.68;;;;;;;;;;5093867;28;20016;-47
2021/05/15 06:36:14;;;;;;;6.50;0.85;;;;;;;;;;5093626;28;20077;-46
2021/05/15 06:38:42;;;;;;;3.83;1.05;;;;;;;;;;5093622;28;20468;-47
2021/05/15 06:41:08;;;;;;;1.83;0.98;;;;;;;;;;5093460;28;20095;-47
2021/05/15 06:43:34;;;;;;;1.48;1.00;;;;;;;;;;5093487;28;20361;-46
2021/05/15 06:46:00;;;;;;;2.88;1.00;;;;;;;;;;5093263;28;20169;-46
2021/05/15 06:48:26;;;;;;;0.80;0.73;;;;;;;;;;5094023;28;20020;-46
2021/05/15 06:50:52;;;;;;;1.35;1.08;;;;;;;;;;5093042;28;20031;-46
2021/05/15 06:53:18;;;;;;;2.83;0.80;;;;;;;;;;5078969;28;20397;-47
2021/05/15 06:55:44;;;;;;;4.78;0.85;;;;;;;;;;5071871;28;20036;-47
2021/05/15 06:58:10;;;;;;;0.73;0.73;;;;;;;;;;5072166;28;20036;-46
2021/05/15 07:00:36;;;;;;;1.10;0.95;;;;;;;;;;5072985;28;20039;-47
2021/05/15 07:03:02;;;;;;;1.23;0.65;;;;;;;;;;5072553;28;20025;-47
2021/05/15 07:05:28;;;;;;;3.83;1.00;;;;;;;;;;5072834;28;20103;-46
2021/05/15 07:07:54;;;;;;;3.35;0.95;;;;;;;;;;5073022;28;20477;-46
2021/05/15 07:10:20;;;;;;;1.30;0.75;;;;;;;;;;5072498;28;20116;-47
2021/05/15 07:12:46;;;;;;;0.70;0.57;;;;;;;;;;5072556;28;20358;-46
2021/05/15 07:15:12;;;;;;;2.92;1.25;;;;;;;;;;5072511;28;20021;-47
2021/05/15 07:17:39;;;;;;;0.95;0.85;;;;;;;;;;5073254;28;20033;-47
2021/05/15 07:20:05;;;;;;;1.02;0.80;;;;;;;;;;5072619;28;20374;-46
2021/05/15 07:22:31;;;;;;;1.02;1.00;;;;;;;;;;5072804;28;20107;-46
2021/05/15 07:25:01;;;;;;;1.58;1.05;;;;;;;;;;5071831;28;20322;-46
2021/05/15 07:27:29;;;;;;;0.87;0.87;;;;;;;;;;5079274;28;20012;-47
2021/05/15 07:29:55;;;;;;;4.68;1.23;;;;;;;;;;5092720;28;20032;-47
2021/05/15 07:32:22;;;;;;;19.52;1.20;;;;;;;;;;5092365;28;20107;-46
2021/05/15 07:34:48;;;;;;;0.98;0.82;;;;;;;;;;5093050;28;20024;-46
2021/05/15 07:37:14;;;;;;;0.80;0.55;;;;;;;;;;5092441;28;20032;-47
2021/05/15 07:39:41;;;;;;;1.10;1.00;;;;;;;;;;5092345;28;20020;-47
2021/05/15 07:42:07;;;;;;;0.65;0.65;;;;;;;;;;5092184;28;20020;-47
2021/05/15 07:44:34;;;;;;;2.35;1.02;;;;;;;;;;5092822;28;20028;-47
2021/05/15 07:47:00;;;;;;;3.35;0.98;;;;;;;;;;5092343;28;20020;-47
2021/05/15 07:49:26;;;;;;;0.50;0.50;;;;;;;;;;5092321;28;20057;-47
2021/05/15 07:51:53;;;;;;;8.50;1.00;;;;;;;;;;5091843;28;20027;-47
2021/05/15 07:54:20;;;;;;;3.45;0.82;;;;;;;;;;5092257;28;20054;-47
2021/05/15 07:56:46;;;;;;;1.45;0.80;;;;;;;;;;5092365;28;20162;-47
2021/05/15 07:59:12;;;;;;;1.52;0.75;;;;;;;;;;5092449;28;20020;-47
2021/05/15 08:01:38;;;;;;;1.40;1.30;;;;;;;;;;5091848;28;20049;-47
2021/05/15 08:04:04;;;;;;;0.82;0.82;;;;;;;;;;5092091;28;20330;-47
2021/05/15 08:06:30;;;;;;;0.65;0.63;;;;;;;;;;5091836;28;20038;-46
2021/05/15 08:08:56;;;;;;;1.83;1.10;;;;;;;;;;5091756;28;20028;-47
2021/05/15 08:11:22;;;;;;;2.05;0.95;;;;;;;;;;5091779;28;20058;-46
2021/05/15 08:13:48;;;;;;;1.00;0.90;;;;;;;;;;5092421;28;20357;-47
2021/05/15 08:16:15;;;;;;;1.25;1.00;;;;;;;;;;5091766;28;20047;-47
2021/05/15 08:18:41;;;;;;;1.02;0.75;;;;;;;;;;5091924;28;20519;-47
2021/05/15 08:21:08;;;;;;;2.85;1.10;;;;;;;;;;5090927;28;20202;-46
2021/05/15 08:23:37;;;;;;;1.60;1.00;;;;;;;;;;5091794;28;20115;-47
2021/05/15 08:26:04;;;;;;;0.40;0.40;;;;;;;;;;5091657;28;20051;-46
2021/05/15 08:28:30;;;;;;;1.40;1.00;;;;;;;;;;5090159;28;20067;-46
2021/05/15 08:30:57;;;;;;;2.67;0.98;;;;;;;;;;5091500;28;20024;-47
2021/05/15 08:33:23;;;;;;;0.90;0.88;;;;;;;;;;5091784;28;20016;-46
2021/05/15 08:35:49;;;;;;;9.80;2.33;;;;;;;;;;5090817;28;20419;-47
2021/05/15 08:38:15;;;;;;;3.88;1.25;;;;;;;;;;5091220;28;20040;-47
2021/05/15 08:40:41;;;;;;;1.20;0.93;;;;;;;;;;5090566;28;20075;-47
2021/05/15 08:43:07;;;;;;;0.73;0.73;;;;;;;;;;5091555;28;20453;-46
2021/05/15 08:45:33;;;;;;;1.08;0.85;;;;;;;;;;5091506;28;20449;-47
2021/05/15 08:48:01;;;;;;;0.38;0.38;;;;;;;;;;5091378;28;20027;-46
2021/05/15 08:50:28;;;;;;;1.48;0.80;;;;;;;;;;5091210;28;20028;-47
2021/05/15 08:52:55;;;;;;;0.82;0.75;;;;;;;;;;5091665;28;20028;-46
2021/05/15 08:55:23;;;;;;;4.60;1.30;;;;;;;;;;5091084;28;20027;-47
2021/05/15 08:57:49;;;;;;;4.00;0.82;;;;;;;;;;5091092;28;20457;-46
2021/05/15 09:00:20;;;;;;;0.80;0.77;;;;;;;;;;5091260;28;20020;-47
2021/05/15 09:02:48;;;;;;;0.60;0.60;;;;;;;;;;5091355;28;20028;-47
2021/05/15 09:05:15;;;;;;;1.20;1.17;;;;;;;;;;5090990;28;20059;-47
2021/05/15 09:07:41;;;;;;;3.15;0.70;;;;;;;;;;5082769;28;20036;-47
2021/05/15 09:10:07;;;;;;;7.32;1.65;;;;;;;;;;5070686;28;20032;-46
2021/05/15 09:12:33;;;;;;;5.50;1.20;;;;;;;;;;5071195;28;20043;-47
2021/05/15 09:15:00;;;;;;;0.40;0.40;;;;;;;;;;5071195;28;20108;-47
2021/05/15 09:17:26;;;;;;;0.35;0.35;;;;;;;;;;5070800;28;20035;-46
2021/05/15 09:19:53;;;;;;;1.75;0.50;;;;;;;;;;5071132;28;20025;-46
2021/05/15 09:22:26;;;;;;;1.35;0.65;;;;;;;;;;5070217;28;20359;-48
2021/05/15 09:24:52;;;;;;;1.98;1.13;;;;;;;;;;5071317;28;20048;-46
2021/05/15 09:27:18;;;;;;;2.33;1.58;;;;;;;;;;5078358;28;20444;-46
2021/05/15 09:29:45;;;;;;;0.70;0.70;;;;;;;;;;5094938;28;20040;-46
2021/05/15 09:32:12;;;;;;;1.17;1.00;;;;;;;;;;5094520;28;20438;-46
2021/05/15 09:34:49;;;;;;;5.97;1.30;;;;;;;;;;5094800;28;20450;-46
2021/05/15 09:37:47;;;;;;;4.25;0.85;;;;;;;;;;5094453;28;20562;-46
2021/05/15 09:40:14;;;;;;;0.75;0.50;;;;;;;;;;5091998;28;20539;-46
2021/05/15 09:42:47;;;;;;;1.55;0.63;;;;;;;;;;5092050;28;20063;-46
2021/05/15 09:45:17;;;;;;;0.50;0.50;;;;;;;;;;5091823;28;20023;-46
2021/05/15 09:47:43;;;;;;;;;;;;;;;;;;5092032;28;20066;-46
2021/05/15 09:50:13;;;;;;;0.73;0.73;;;;;;;;;;5091704;28;19908;-47
2021/05/15 09:52:39;;;;;;;;;;;;;;;;;;5092253;28;20059;-46
2021/05/15 09:55:08;;;;;;;0.20;0.20;;;;;;;;;;5091987;28;20014;-46
2021/05/15 09:57:36;;;;;;;0.50;0.50;;;;;;;;;;5091572;28;20068;-46
2021/05/15 10:00:10;;;;;;;0.98;0.90;;;;;;;;;;5091428;28;20028;-46
2021/05/15 10:02:36;;;;;;;0.38;0.38;;;;;;;;;;5091232;28;20139;-46
2021/05/15 10:05:12;;;;;;;0.40;0.40;;;;;;;;;;5091670;28;20028;-46
2021/05/15 10:07:38;;;;;;;0.60;0.60;;;;;;;;;;5091600;28;20536;-47
2021/05/15 10:10:06;;;;;;;0.40;0.40;;;;;;;;;;5091433;28;20044;-46
2021/05/15 10:12:33;;;;;;;1.95;0.60;;;;;;;;;;5091033;28;20444;-46
2021/05/15 10:15:00;;;;;;;0.40;0.40;;;;;;;;;;5091810;28;20472;-46
2021/05/15 10:17:26;;;;;;;2.70;0.90;;;;;;;;;;5094073;28;20119;-46
2021/05/15 10:19:52;;;;;;;0.32;0.32;;;;;;;;;;5093683;28;20053;-46
2021/05/15 10:22:18;;;;;;;0.77;0.47;;;;;;;;;;5094038;28;20031;-46
2021/05/15 10:24:46;;;;;;;1.40;0.70;;;;;;;;;;5094562;28;20445;-47
2021/05/15 10:27:13;;;;;;;1.48;1.33;;;;;;;;;;5093505;28;20287;-46
2021/05/15 10:29:39;;;;;;;8.18;1.10;;;;;;;;;;5093990;28;20032;-46
2021/05/15 10:32:05;;;;;;;10.57;1.05;;;;;;;;;;5093488;28;20193;-46
2021/05/15 10:34:32;;;;;;;0.80;0.70;;;;;;;;;;5093751;28;20450;-46
2021/05/15 10:36:58;;;;;;;3.30;0.70;;;;;;;;;;5093544;28;20035;-46
2021/05/15 10:39:25;;;;;;;8.52;1.45;;;;;;;;;;5092387;28;20383;-47
2021/05/15 10:41:51;;;;;;;2.08;1.00;;;;;;;;;;5093282;28;20032;-46
2021/05/15 10:44:17;;;;;;;0.80;0.50;;;;;;;;;;5093788;28;20073;-46
2021/05/15 10:46:47;;;;;;;0.20;0.20;;;;;;;;;;5093431;28;20078;-46
2021/05/15 10:49:17;;;;;;;1.55;1.10;;;;;;;;;;5093503;28;20016;-46
2021/05/15 10:51:45;;;;;;;1.98;0.98;;;;;;;;;;5093467;28;20108;-46
2021/05/15 10:54:12;;;;;;;0.40;0.40;;;;;;;;;;5093316;28;20028;-47
2021/05/15 10:56:38;;;;;;;1.02;0.95;;;;;;;;;;5093635;28;20036;-46
2021/05/15 10:59:04;;;;;;;1.10;0.73;;;;;;;;;;5093189;28;20020;-46
2021/05/15 11:01:42;;;;;;;1.60;0.80;;;;;;;;;;5092873;28;20032;-47
2021/05/15 11:04:18;;;;;;;1.55;0.65;;;;;;;;;;5093655;28;20071;-46
2021/05/15 11:06:55;;;;;;;1.90;0.65;;;;;;;;;;5093264;28;20075;-47
2021/05/15 11:09:21;;;;;;;1.55;0.77;;;;;;;;;;5093100;28;20042;-45
2021/05/15 11:11:49;;;;;;;1.17;0.80;;;;;;;;;;5092706;28;20043;-46
2021/05/15 11:14:32;;;;;;;1.30;0.70;;;;;;;;;;5092787;28;20107;-45
2021/05/15 11:17:04;;;;;;;0.73;0.55;;;;;;;;;;5092478;28;20036;-45
2021/05/15 11:19:30;;;;;;;0.80;0.80;;;;;;;;;;5092905;28;20019;-45
2021/05/15 11:21:56;;;;;;;1.15;0.70;;;;;;;;;;5093081;28;20327;-45
2021/05/15 11:24:32;;;;;;;1.95;0.80;;;;;;;;;;5092598;28;20105;-45
2021/05/15 11:27:09;;;;;;;0.50;0.50;;;;;;;;;;5092973;28;20044;-46
2021/05/15 11:29:36;;;;;;;1.48;0.70;;;;;;;;;;5092078;28;20047;-45
2021/05/15 11:32:28;;;;;;;6.60;0.57;;;;;;;;;;5092431;28;20024;-45
2021/05/15 11:34:56;;;;;;;0.70;0.70;;;;;;;;;;5092407;28;20097;-46
2021/05/15 11:37:22;;;;;;;0.35;0.30;;;;;;;;;;5092740;28;20040;-45
2021/05/15 11:39:52;;;;;;;2.85;1.23;;;;;;;;;;5092175;28;20077;-45
2021/05/15 11:42:18;;;;;;;1.75;0.70;;;;;;;;;;5092211;28;20024;-45
2021/05/15 11:44:51;;;;;;;4.97;1.25;;;;;;;;;;5092140;28;20411;-45
2021/05/15 11:47:17;;;;;;;2.55;0.80;;;;;;;;;;5092584;28;20078;-46
2021/05/15 11:49:43;;;;;;;0.95;0.40;;;;;;;;;;5092058;28;20020;-45
2021/05/15 11:52:10;;;;;;;3.47;0.65;;;;;;;;;;5092020;28;20027;-45
2021/05/15 11:54:39;;;;;;;2.78;0.80;;;;;;;;;;5091831;28;20135;-46
2021/05/15 11:57:05;;;;;;;1.33;0.30;;;;;;;;;;5092420;28;20040;-45
2021/05/15 11:59:31;;;;;;;1.75;1.15;;;;;;;;;;5091863;28;20497;-46
2021/05/15 12:01:59;;;;;;;0.98;0.50;;;;;;;;;;5092012;28;20024;-46
2021/05/15 12:04:30;;;;;;;0.40;0.40;;;;;;;;;;5092131;28;20457;-45
2021/05/15 12:06:59;;;;;;;4.55;1.08;;;;;;;;;;5090021;28;20036;-45
2021/05/15 12:09:28;;;;;;;4.43;2.97;;;;;;;;;;5071734;28;20035;-46
2021/05/15 12:12:08;;;;;;;1.95;1.17;;;;;;;;;;5071464;28;20077;-46
2021/05/15 12:14:37;;;;;;;0.32;0.32;;;;;;;;;;5071618;28;20074;-47
2021/05/15 12:17:21;;;;;;;0.50;0.50;;;;;;;;;;5071489;28;20041;-45
2021/05/15 12:19:57;;;;;;;1.27;0.73;;;;;;;;;;5071313;28;20449;-46
2021/05/15 12:22:27;;;;;;;0.40;0.40;;;;;;;;;;5071534;28;20031;-46
2021/05/15 12:24:53;;;;;;;0.20;0.20;;;;;;;;;;5071399;28;20028;-46
2021/05/15 12:27:23;;;;;;;1.58;0.50;;;;;;;;;;5076889;28;20024;-46
2021/05/15 12:29:59;;;;;;;2.35;0.63;;;;;;;;;;5091365;28;20047;-45
2021/05/15 12:32:27;;;;;;;0.50;0.50;;;;;;;;;;5091771;28;20033;-46
2021/05/15 12:35:01;;;;;;;0.68;0.55;;;;;;;;;;5091649;28;20099;-46
2021/05/15 12:37:34;;;;;;;0.40;0.40;;;;;;;;;;5091685;28;20028;-46
2021/05/15 12:40:14;;;;;;;0.38;0.38;;;;;;;;;;5091247;28;20480;-46
2021/05/15 12:42:40;;;;;;;5.15;0.55;;;;;;;;;;5091327;28;20532;-46
2021/05/15 12:45:11;;;;;;;2.20;0.77;;;;;;;;;;5091508;28;20012;-46
2021/05/15 12:47:36;;;;;;;;;;;;;;;;;;5092352;28;20020;-46
2021/05/15 12:50:15;;;;;;;0.30;0.30;;;;;;;;;;5091358;28;19910;-46
2021/05/15 12:52:41;;;;;;;0.40;0.40;;;;;;;;;;5091312;28;20069;-45
2021/05/15 12:55:12;;;;;;;0.43;0.43;;;;;;;;;;5090908;28;20391;-46
2021/05/15 12:57:38;;;;;;;0.45;0.45;;;;;;;;;;5091271;28;20028;-46
2021/05/15 13:00:04;;;;;;;0.40;0.40;;;;;;;;;;5091124;28;20396;-46
2021/05/15 13:02:30;;;;;;;0.35;0.35;;;;;;;;;;5090644;28;20024;-46
2021/05/15 13:04:57;;;;;;;3.55;0.80;;;;;;;;;;5091293;28;20020;-46
2021/05/15 13:07:24;;;;;;;1.55;0.68;;;;;;;;;;5090768;28;20027;-46
2021/05/15 13:09:52;;;;;;;0.63;0.63;;;;;;;;;;5091495;28;20051;-46
2021/05/15 13:12:18;;;;;;;2.60;0.82;;;;;;;;;;5091156;28;20099;-46
2021/05/15 13:14:45;;;;;;;0.20;0.20;;;;;;;;;;5091241;28;20430;-46
2021/05/15 13:17:11;;;;;;;2.28;0.65;;;;;;;;;;5090906;28;20535;-46
2021/05/15 13:19:37;;;;;;;2.92;0.52;;;;;;;;;;5091011;28;20012;-46
2021/05/15 13:22:03;;;;;;;0.45;0.45;;;;;;;;;;5090754;28;20077;-46
2021/05/15 13:24:29;;;;;;;0.40;0.40;;;;;;;;;;5090892;28;20017;-46
2021/05/15 13:26:55;;;;;;;1.17;0.73;;;;;;;;;;5090740;28;20070;-47
2021/05/15 13:29:21;;;;;;;0.45;0.45;;;;;;;;;;5090735;28;20370;-46
2021/05/15 13:31:47;;;;;;;0.90;0.90;;;;;;;;;;5090959;28;20051;-46
2021/05/15 13:34:13;;;;;;;0.60;0.60;;;;;;;;;;5090754;28;20060;-46
2021/05/15 13:36:39;;;;;;;4.18;0.57;;;;;;;;;;5090252;28;20032;-46
2021/05/15 13:39:06;;;;;;;4.07;0.85;;;;;;;;;;5090471;28;20438;-46
2021/05/15 13:41:32;;;;;;;2.63;0.63;;;;;;;;;;5090654;28;20035;-47
2021/05/15 13:43:59;;;;;;;1.13;0.85;;;;;;;;;;5091088;28;20090;-46
2021/05/15 13:46:25;;;;;;;0.93;0.50;;;;;;;;;;5090631;28;20027;-47
2021/05/15 13:48:51;;;;;;;0.40;0.40;;;;;;;;;;5090132;28;20119;-46
2021/05/15 13:51:17;;;;;;;0.20;0.20;;;;;;;;;;5089521;28;20036;-46
2021/05/15 13:53:44;;;;;;;2.17;1.15;;;;;;;;;;5090686;28;20022;-46
2021/05/15 13:56:10;;;;;;;0.50;0.43;;;;;;;;;;5090783;28;20044;-46
2021/05/15 13:58:37;;;;;;;1.17;0.55;;;;;;;;;;5090813;28;20023;-46
2021/05/15 14:01:07;;;;;;;0.45;0.45;;;;;;;;;;5090201;28;20350;-46
2021/05/15 14:03:33;;;;;;;0.88;0.73;;;;;;;;;;5090415;28;20422;-46
2021/05/15 14:05:59;;;;;;;0.52;0.50;;;;;;;;;;5090507;28;20035;-46
2021/05/15 14:08:25;;;;;;;0.85;0.70;;;;;;;;;;5090837;28;20301;-46
2021/05/15 14:10:51;;;;;;;0.32;0.32;;;;;;;;;;5090424;28;20054;-46
2021/05/15 14:13:19;;;;;;;0.35;0.35;;;;;;;;;;5092498;28;20099;-46
2021/05/15 14:15:45;;;;;;;0.47;0.40;;;;;;;;;;5094077;28;20054;-46
2021/05/15 14:18:11;;;;;;;0.57;0.57;;;;;;;;;;5093996;28;20032;-46
2021/05/15 14:20:39;;;;;;;2.97;2.75;;;;;;;;;;5093765;28;20024;-46
2021/05/15 14:23:05;;;;;;;0.70;0.70;;;;;;;;;;5094071;28;20036;-46
2021/05/15 14:25:32;;;;;;;0.43;0.40;;;;;;;;;;5093910;28;20460;-46
2021/05/15 14:27:58;;;;;;;0.65;0.50;;;;;;;;;;5093998;28;20497;-46
2021/05/15 14:30:24;;;;;;;0.50;0.50;;;;;;;;;;5093326;28;20036;-46
2021/05/15 14:32:51;;;;;;;2.75;0.82;;;;;;;;;;5093453;28;20039;-46
2021/05/15 14:35:17;;;;;;;3.63;0.57;;;;;;;;;;5093859;28;20292;-46
2021/05/15 14:37:44;;;;;;;0.82;0.60;;;;;;;;;;5093313;28;20032;-47
2021/05/15 14:40:11;;;;;;;0.73;0.73;;;;;;;;;;5093635;28;20047;-46
2021/05/15 14:42:38;;;;;;;0.40;0.40;;;;;;;;;;5093945;28;20031;-47